Time;durP1;ratioP1;P1;durP2;ratioP2;P2;SDS_P1;SDS_P2;PMS_P1;PMS_P2;Temp;Humidity;BMP_temperature;BMP_pressure;BME280_temperature;BME280_humidity;BME280_pressure;Samples;Min_cycle;Max_cycle;Signal;HPM_P1;HPM_P2
2023/12/20 00:01:57;;;;;;;15.30;8.13;;;3.80;99.90;;;;;;4961801;29;20601;-79
2023/12/20 00:04:23;;;;;;;17.17;9.18;;;3.70;99.90;;;;;;4970517;28;20027;-80
2023/12/20 00:06:49;;;;;;;16.75;8.68;;;3.70;99.90;;;;;;4972072;29;20035;-78
2023/12/20 00:09:14;;;;;;;15.43;7.65;;;3.70;99.90;;;;;;4966549;28;20028;-79
2023/12/20 00:11:42;;;;;;;14.73;8.32;;;3.70;99.90;;;;;;4960180;28;20035;-79
2023/12/20 00:14:11;;;;;;;15.43;8.80;;;3.70;99.90;;;;;;4961973;28;20047;-78
2023/12/20 00:16:38;;;;;;;17.10;10.10;;;3.70;99.90;;;;;;4961180;28;20030;-79
2023/12/20 00:19:04;;;;;;;19.90;9.15;;;3.60;99.90;;;;;;4963899;28;20015;-79
2023/12/20 00:21:30;;;;;;;15.75;9.23;;;3.60;99.90;;;;;;4948763;29;20028;-79
2023/12/20 00:23:55;;;;;;;16.77;9.38;;;3.60;99.90;;;;;;4966879;29;20039;-79
2023/12/20 00:26:21;;;;;;;14.68;8.15;;;3.60;99.90;;;;;;4968353;29;20444;-79
2023/12/20 00:28:46;;;;;;;19.58;9.68;;;3.70;99.90;;;;;;4969724;29;20054;-79
2023/12/20 00:31:12;;;;;;;17.02;9.77;;;3.60;99.90;;;;;;4969954;29;20019;-83
2023/12/20 00:33:39;;;;;;;17.70;10.48;;;3.60;99.90;;;;;;4970237;29;20031;-80
2023/12/20 00:36:05;;;;;;;19.15;9.90;;;3.50;99.90;;;;;;4951494;29;20050;-82
2023/12/20 00:38:31;;;;;;;16.52;9.65;;;3.60;99.90;;;;;;4964132;29;20107;-84
2023/12/20 00:40:57;;;;;;;27.02;13.15;;;3.60;99.90;;;;;;4966156;29;20087;-80
2023/12/20 00:43:23;;;;;;;17.95;9.43;;;3.60;99.90;;;;;;4968919;29;20444;-80
2023/12/20 00:45:49;;;;;;;18.73;10.38;;;3.70;99.90;;;;;;4969114;29;20033;-78
2023/12/20 00:48:15;;;;;;;13.82;8.93;;;3.90;99.90;;;;;;4968669;29;20020;-80
2023/12/20 00:50:41;;;;;;;10.82;7.75;;;3.70;99.90;;;;;;4951996;29;20163;-82
2023/12/20 00:53:06;;;;;;;13.93;7.57;;;3.80;99.90;;;;;;4967864;28;20034;-79
2023/12/20 00:55:35;;;;;;;17.63;8.23;;;3.70;99.90;;;;;;4971387;28;20105;-82
2023/12/20 00:58:01;;;;;;;12.38;8.13;;;3.80;99.90;;;;;;4991251;28;20030;-79
2023/12/20 01:00:27;;;;;;;20.58;8.85;;;3.60;99.90;;;;;;4990386;28;20046;-82
2023/12/20 01:02:52;;;;;;;19.48;9.93;;;3.60;99.90;;;;;;4973590;28;20038;-80
2023/12/20 01:05:19;;;;;;;18.17;9.90;;;3.70;99.90;;;;;;4992774;28;20031;-78
2023/12/20 01:07:46;;;;;;;26.33;12.93;;;3.70;99.90;;;;;;4994633;28;20573;-78
2023/12/20 01:10:11;;;;;;;24.42;13.77;;;3.70;99.90;;;;;;4973728;28;20034;-79
2023/12/20 01:12:38;;;;;;;24.00;12.48;;;3.70;99.90;;;;;;4989063;28;20023;-78
2023/12/20 01:15:05;;;;;;;25.02;11.82;;;3.70;99.90;;;;;;4973203;28;20023;-82
2023/12/20 01:17:31;;;;;;;21.83;10.48;;;3.70;99.90;;;;;;4988580;28;20027;-79
2023/12/20 01:19:58;;;;;;;23.20;11.77;;;3.70;99.90;;;;;;4991514;28;20487;-79
2023/12/20 01:22:23;;;;;;;22.58;11.68;;;3.70;99.90;;;;;;4995621;28;20547;-78
2023/12/20 01:24:51;;;;;;;21.70;10.65;;;3.70;99.90;;;;;;4977628;28;20038;-77
2023/12/20 01:27:16;;;;;;;24.98;10.95;;;3.70;99.90;;;;;;4974892;28;20022;-79
2023/12/20 01:29:51;;;;;;;17.63;10.15;;;3.70;99.90;;;;;;4994061;28;20038;-78
2023/12/20 01:32:18;;;;;;;19.98;11.02;;;3.80;99.90;;;;;;4978093;28;20039;-78
2023/12/20 01:34:43;;;;;;;18.73;10.40;;;3.70;99.90;;;;;;4993841;28;20030;-80
2023/12/20 01:37:09;;;;;;;20.42;11.00;;;3.60;99.90;;;;;;4977499;28;20031;-79
2023/12/20 01:39:38;;;;;;;26.33;11.68;;;3.60;99.90;;;;;;4995105;28;20031;-78
2023/12/20 01:42:05;;;;;;;17.27;9.88;;;3.60;99.90;;;;;;4995753;28;20007;-79
2023/12/20 01:44:51;;;;;;;21.77;10.98;;;3.60;99.90;;;;;;4995216;28;20066;-78
2023/12/20 01:47:17;;;;;;;18.27;10.18;;;3.50;99.90;;;;;;4978547;28;20043;-80
2023/12/20 01:49:43;;;;;;;15.40;9.10;;;3.50;99.90;;;;;;4996242;28;20108;-78
2023/12/20 01:52:12;;;;;;;16.95;10.02;;;3.50;99.90;;;;;;4979321;28;20031;-78
2023/12/20 01:54:42;;;;;;;15.10;10.10;;;3.60;99.90;;;;;;4979377;28;20019;-79
2023/12/20 01:57:08;;;;;;;;;;;3.60;99.90;;;;;;4989497;28;20031;-84
2023/12/20 01:59:34;;;;;;;18.42;9.07;;;3.60;99.90;;;;;;4976283;28;19933;-78
2023/12/20 02:02:00;;;;;;;16.83;9.70;;;3.50;99.90;;;;;;4990739;28;20049;-78
2023/12/20 02:04:27;;;;;;;18.35;9.20;;;3.60;99.90;;;;;;4998592;28;20057;-82
2023/12/20 02:06:58;;;;;;;15.43;9.35;;;3.60;99.90;;;;;;4999937;28;20026;-80
2023/12/20 02:09:28;;;;;;;18.55;10.05;;;3.50;99.90;;;;;;4984103;28;20030;-80
2023/12/20 02:12:05;;;;;;;14.20;8.63;;;3.60;99.90;;;;;;5000422;28;20011;-78
2023/12/20 02:14:36;;;;;;;14.75;9.63;;;3.60;99.90;;;;;;5000182;28;20090;-81
2023/12/20 02:17:02;;;;;;;18.48;9.27;;;3.50;99.90;;;;;;4981966;28;20019;-81
2023/12/20 02:19:35;;;;;;;16.67;9.10;;;3.50;99.90;;;;;;4977827;28;20050;-77
2023/12/20 02:22:14;;;;;;;17.73;10.65;;;3.40;99.90;;;;;;4994127;28;20254;-77
2023/12/20 02:24:42;;;;;;;11.95;7.63;;;3.50;99.90;;;;;;4993728;28;20057;-77
2023/12/20 02:27:09;;;;;;;7.22;4.95;;;3.50;99.90;;;;;;4962784;28;20035;-77
2023/12/20 02:29:41;;;;;;;5.07;2.22;;;3.60;99.90;;;;;;4978235;28;20011;-77
2023/12/20 02:32:37;;;;;;;2.65;1.90;;;4.10;99.90;;;;;;4979390;28;20037;-77
2023/12/20 02:35:26;;;;;;;3.35;2.72;;;4.40;99.90;;;;;;4976060;28;20086;-80
2023/12/20 02:37:52;;;;;;;3.90;3.17;;;4.70;99.90;;;;;;4993452;28;20086;-76
2023/12/20 02:40:21;;;;;;;5.40;4.03;;;4.90;99.90;;;;;;4994810;28;20027;-77
2023/12/20 02:42:47;;;;;;;2.80;1.95;;;4.90;99.90;;;;;;4996366;28;20027;-79
2023/12/20 02:45:13;;;;;;;1.55;1.45;;;5.00;99.90;;;;;;4990748;28;20035;-79
2023/12/20 02:47:38;;;;;;;4.63;2.35;;;5.20;99.90;;;;;;4988177;28;20023;-81
2023/12/20 02:50:04;;;;;;;2.95;1.67;;;5.20;99.90;;;;;;4987286;28;20027;-79
2023/12/20 02:52:30;;;;;;;1.27;1.05;;;5.30;99.90;;;;;;4988372;28;20030;-77
2023/12/20 02:54:57;;;;;;;1.55;1.42;;;5.40;99.90;;;;;;4976235;28;20034;-78
2023/12/20 02:57:23;;;;;;;1.40;1.00;;;5.50;99.90;;;;;;4977117;28;20490;-77
2023/12/20 02:59:48;;;;;;;0.93;0.80;;;5.50;99.90;;;;;;4991776;28;20090;-81
2023/12/20 03:02:18;;;;;;;2.67;2.08;;;5.50;99.90;;;;;;4977769;28;20023;-76
2023/12/20 03:04:44;;;;;;;1.75;1.45;;;5.60;99.90;;;;;;4995877;28;20034;-77
2023/12/20 03:07:11;;;;;;;0.70;0.70;;;5.60;99.90;;;;;;4995229;28;20065;-77
2023/12/20 03:09:45;;;;;;;0.45;0.45;;;5.60;99.90;;;;;;4993411;28;20031;-76
2023/12/20 03:12:11;;;;;;;0.47;0.47;;;5.70;99.90;;;;;;4993224;28;20034;-76
2023/12/20 03:14:36;;;;;;;0.30;0.30;;;5.80;99.90;;;;;;4974730;28;20059;-79
2023/12/20 03:17:03;;;;;;;0.52;0.30;;;5.80;99.90;;;;;;4992888;28;20027;-77
2023/12/20 03:19:29;;;;;;;0.30;0.30;;;5.80;99.90;;;;;;4992688;28;20033;-77
2023/12/20 03:21:54;;;;;;;0.47;0.40;;;5.80;99.90;;;;;;4974692;28;20007;-77
2023/12/20 03:24:20;;;;;;;0.20;0.20;;;5.90;99.90;;;;;;4990992;28;20395;-77
2023/12/20 03:26:45;;;;;;;0.25;0.10;;;5.90;99.90;;;;;;4988448;28;20026;-77
2023/12/20 03:29:11;;;;;;;0.20;0.20;;;5.90;99.90;;;;;;4991285;28;20035;-79
2023/12/20 03:31:37;;;;;;;0.10;0.10;;;5.90;99.90;;;;;;4992153;28;20026;-83
2023/12/20 03:34:02;;;;;;;0.22;0.20;;;5.90;99.90;;;;;;4988428;28;20031;-79
2023/12/20 03:36:28;;;;;;;0.30;0.30;;;5.90;99.90;;;;;;4991608;28;20022;-78
2023/12/20 03:38:54;;;;;;;1.92;1.83;;;5.90;99.90;;;;;;4991963;28;20416;-80
2023/12/20 03:41:20;;;;;;;7.72;5.05;;;5.80;99.90;;;;;;4993919;28;20085;-78
2023/12/20 03:43:46;;;;;;;13.55;8.32;;;5.00;99.90;;;;;;4994652;28;20050;-77
2023/12/20 03:46:11;;;;;;;7.63;4.60;;;5.10;99.90;;;;;;4995768;28;20074;-77
2023/12/20 03:49:25;;;;;;;13.98;8.18;;;5.10;99.90;;;;;;4981207;28;20034;-77
2023/12/20 03:52:28;;;;;;;17.55;9.68;;;4.70;99.90;;;;;;4934529;28;20037;-78
2023/12/20 03:55:09;;;;;;;15.60;8.98;;;4.30;99.90;;;;;;4992123;28;20018;-77
2023/12/20 03:58:31;;;;;;;19.83;10.15;;;4.10;99.90;;;;;;4979998;28;20087;-79
2023/12/20 04:01:29;;;;;;;18.98;9.63;;;3.80;99.90;;;;;;4986372;28;20034;-78
2023/12/20 04:04:39;;;;;;;16.85;10.02;;;3.70;99.90;;;;;;4982462;28;20025;-76
2023/12/20 04:14:53;;;;;;;22.55;11.75;;;3.50;99.90;;;;;;4888916;29;20061;-79
2023/12/20 04:17:56;;;;;;;22.17;11.18;;;3.50;99.90;;;;;;4902808;29;20025;-77
2023/12/20 04:20:21;;;;;;;24.88;11.02;;;3.50;99.90;;;;;;4942639;29;20016;-79
2023/12/20 04:22:47;;;;;;;20.17;11.57;;;3.50;99.90;;;;;;4973140;28;20033;-78
2023/12/20 04:25:33;;;;;;;19.70;11.27;;;3.60;99.90;;;;;;4997663;28;20025;-83
2023/12/20 04:27:59;;;;;;;20.02;11.63;;;3.60;99.90;;;;;;4997793;28;20026;-85
2023/12/20 04:30:24;;;;;;;18.65;11.52;;;3.70;99.90;;;;;;4992748;28;20039;-85
2023/12/20 04:32:50;;;;;;;23.92;12.43;;;3.70;99.90;;;;;;4977605;28;20011;-83
2023/12/20 04:35:16;;;;;;;16.02;9.77;;;3.90;99.90;;;;;;4998831;28;20033;-80
2023/12/20 04:37:52;;;;;;;19.15;11.05;;;4.00;99.90;;;;;;4999097;28;20022;-80
2023/12/20 04:40:59;;;;;;;18.20;11.40;;;4.10;99.90;;;;;;4999004;28;20042;-78
2023/12/20 04:43:26;;;;;;;23.05;12.02;;;4.10;99.90;;;;;;4999081;28;20094;-78
2023/12/20 04:45:52;;;;;;;19.08;10.70;;;3.60;99.90;;;;;;4998419;28;20065;-83
2023/12/20 04:48:27;;;;;;;17.23;9.15;;;3.90;99.90;;;;;;4982084;28;20019;-83
2023/12/20 04:51:10;;;;;;;10.18;6.82;;;4.00;99.90;;;;;;4983512;28;20071;-82
2023/12/20 04:53:35;;;;;;;12.43;7.50;;;4.20;99.90;;;;;;4973329;28;20043;-85
2023/12/20 04:56:01;;;;;;;16.20;8.13;;;4.30;99.90;;;;;;4983269;28;20023;-82
2023/12/20 04:58:27;;;;;;;13.07;6.45;;;4.40;99.90;;;;;;4991133;28;20089;-80
2023/12/20 05:00:53;;;;;;;8.80;5.88;;;4.50;99.90;;;;;;4986708;28;20054;-79
2023/12/20 05:03:19;;;;;;;6.47;4.63;;;4.60;99.90;;;;;;4987366;28;20022;-77
2023/12/20 05:05:45;;;;;;;2.72;1.80;;;4.90;99.90;;;;;;4954313;28;20035;-77
2023/12/20 05:08:11;;;;;;;0.90;0.90;;;5.10;99.90;;;;;;4934702;28;20015;-79
2023/12/20 05:10:36;;;;;;;0.65;0.65;;;5.30;99.90;;;;;;4959069;28;20030;-80
2023/12/20 05:13:08;;;;;;;2.10;0.28;;;5.40;99.90;;;;;;4977550;28;20109;-78
2023/12/20 05:15:41;;;;;;;0.25;0.25;;;5.60;99.90;;;;;;4970821;28;20026;-80
2023/12/20 05:18:08;;;;;;;1.85;0.20;;;5.70;99.90;;;;;;4973254;28;20019;-79
2023/12/20 05:20:34;;;;;;;0.20;0.20;;;5.80;99.90;;;;;;4962088;28;20035;-80
2023/12/20 05:25:54;;;;;;;0.15;0.15;;;6.00;99.90;;;;;;4999342;28;20045;-81
2023/12/20 05:28:36;;;;;;;0.73;0.20;;;5.90;99.90;;;;;;4984627;28;20106;-77
2023/12/20 05:35:37;;;;;;;0.28;0.20;;;6.00;99.90;;;;;;4908385;29;20056;-81
2023/12/20 05:38:24;;;;;;;1.60;0.20;;;6.00;99.90;;;;;;4828985;29;20039;-78
2023/12/20 05:41:11;;;;;;;0.20;0.20;;;6.00;99.90;;;;;;4847114;29;20014;-82
2023/12/20 05:44:26;;;;;;;0.20;0.20;;;6.00;99.90;;;;;;4927122;29;20064;-83
2023/12/20 05:59:48;;;;;;;0.20;0.20;;;6.00;99.90;;;;;;4774210;30;20083;-80
2023/12/20 06:02:38;;;;;;;0.35;0.30;;;5.90;99.90;;;;;;4777355;29;20024;-78
2023/12/20 06:05:28;;;;;;;0.28;0.28;;;5.90;99.90;;;;;;4776023;29;20350;-77
2023/12/20 06:08:21;;;;;;;0.28;0.28;;;5.90;99.90;;;;;;4846168;29;20109;-78
2023/12/20 06:11:00;;;;;;;2.20;0.60;;;5.90;99.90;;;;;;4864695;29;20037;-80
2023/12/20 06:13:26;;;;;;;;;;;5.90;99.90;;;;;;4902578;29;20044;-77
2023/12/20 06:15:55;;;;;;;0.30;0.30;;;5.80;99.90;;;;;;4902426;29;19896;-78
2023/12/20 06:18:47;;;;;;;0.65;0.35;;;5.80;99.90;;;;;;4887756;29;20022;-80
2023/12/20 06:22:06;;;;;;;0.65;0.65;;;5.80;99.90;;;;;;4896903;29;20029;-83
2023/12/20 06:25:22;;;;;;;1.50;0.60;;;5.90;99.90;;;;;;4827989;29;20042;-79
2023/12/20 06:28:14;;;;;;;0.52;0.40;;;5.90;99.90;;;;;;4836127;29;20128;-81
2023/12/20 06:30:41;;;;;;;0.25;0.25;;;5.80;99.90;;;;;;4936960;29;20020;-83
2023/12/20 06:33:09;;;;;;;0.50;0.50;;;5.90;99.90;;;;;;4928263;29;20028;-80
2023/12/20 06:35:35;;;;;;;0.40;0.40;;;5.80;99.90;;;;;;4958168;29;20047;-78
2023/12/20 06:38:06;;;;;;;0.22;0.22;;;5.80;99.90;;;;;;4957475;29;20123;-83
2023/12/20 06:43:41;;;;;;;0.38;0.30;;;5.80;99.90;;;;;;4827878;29;20054;-81
2023/12/20 06:46:07;;;;;;;0.50;0.50;;;5.80;99.90;;;;;;4955126;29;20118;-82
2023/12/20 06:48:33;;;;;;;1.98;0.50;;;6.60;99.90;;;;;;4939811;29;20031;-81
2023/12/20 06:51:02;;;;;;;0.60;0.60;;;5.80;99.90;;;;;;4939256;29;20437;-82
2023/12/20 06:53:48;;;;;;;0.40;0.40;;;5.80;99.90;;;;;;4954552;29;20027;-79
2023/12/20 06:56:13;;;;;;;0.50;0.50;;;5.80;99.90;;;;;;4987830;28;20045;-80
2023/12/20 06:59:12;;;;;;;0.82;0.82;;;5.80;99.90;;;;;;4989383;28;20094;-83
2023/12/20 07:05:08;;;;;;;1.02;0.73;;;5.80;99.90;;;;;;4961158;28;20035;-78
2023/12/20 07:11:49;;;;;;;0.90;0.90;;;5.90;99.90;;;;;;4831513;29;20034;-81
2023/12/20 07:14:21;;;;;;;0.82;0.82;;;5.90;99.90;;;;;;4861504;29;20483;-78
2023/12/20 07:16:47;;;;;;;0.93;0.90;;;5.80;99.90;;;;;;4891922;29;20037;-80
2023/12/20 07:19:13;;;;;;;0.60;0.60;;;5.80;99.90;;;;;;4879948;29;20035;-81
2023/12/20 07:28:33;;;;;;;;;;;;;;;;;;;;;
2023/12/20 07:31:17;;;;;;;1.30;0.90;;;5.80;99.90;;;;;;4903196;29;20076;-79
2023/12/20 07:33:55;;;;;;;0.40;0.40;;;5.80;99.90;;;;;;4894819;29;20028;-79
2023/12/20 07:36:21;;;;;;;1.00;1.00;;;7.40;99.90;;;;;;4938437;28;20049;-80
2023/12/20 07:38:47;;;;;;;0.70;0.70;;;5.80;99.90;;;;;;4954788;28;20030;-81
2023/12/20 07:41:51;;;;;;;0.80;0.80;;;5.50;99.90;;;;;;4978238;28;20098;-80
2023/12/20 07:44:17;;;;;;;0.82;0.82;;;5.90;99.90;;;;;;4922105;28;20038;-80
2023/12/20 07:47:36;;;;;;;1.33;1.23;;;5.90;99.90;;;;;;4972419;28;20038;-80
2023/12/20 07:51:13;;;;;;;;;;;;;;;;;;;;;
2023/12/20 07:57:46;;;;;;;1.27;1.17;;;5.80;99.90;;;;;;4789578;29;20071;-80
2023/12/20 08:00:48;;;;;;;1.00;1.00;;;5.90;99.90;;;;;;4745849;30;20221;-81
2023/12/20 08:03:14;;;;;;;1.48;1.38;;;5.90;99.90;;;;;;4806771;29;20039;-82
2023/12/20 08:05:45;;;;;;;1.23;1.20;;;5.90;99.90;;;;;;4897784;29;20083;-82
2023/12/20 08:08:14;;;;;;;1.65;1.52;;;5.90;99.90;;;;;;4883215;29;20064;-79
2023/12/20 08:10:46;;;;;;;6.40;3.08;;;6.00;99.90;;;;;;4895308;29;20062;-83
2023/12/20 08:13:12;;;;;;;12.38;5.63;;;6.00;99.90;;;;;;4920691;29;20046;-82
2023/12/20 08:15:44;;;;;;;9.48;4.18;;;6.00;99.90;;;;;;4973166;29;20373;-81
2023/12/20 08:18:16;;;;;;;35.28;11.70;;;6.00;99.90;;;;;;4956377;29;20030;-80
2023/12/20 08:20:54;;;;;;;19.25;6.90;;;6.10;99.90;;;;;;4950308;29;20046;-77
2023/12/20 08:23:21;;;;;;;12.60;4.43;;;6.00;99.90;;;;;;4964300;29;20050;-78
2023/12/20 08:25:50;;;;;;;13.18;5.18;;;6.00;99.90;;;;;;4948624;29;20042;-80
2023/12/20 08:28:41;;;;;;;18.70;6.38;;;6.10;99.90;;;;;;4970662;29;20028;-79
2023/12/20 08:31:36;;;;;;;39.25;11.98;;;6.10;99.90;;;;;;4968265;29;20327;-80
2023/12/20 08:35:18;;;;;;;10.95;3.85;;;6.20;99.90;;;;;;4953843;29;20031;-80
2023/12/20 08:37:42;;;;;;;5.03;2.40;;;6.20;99.90;;;;;;4884967;29;20033;-79
2023/12/20 08:40:08;;;;;;;1.70;1.17;;;6.30;99.90;;;;;;4950973;29;20039;-80
2023/12/20 08:42:34;;;;;;;1.48;1.38;;;6.30;99.90;;;;;;4944318;29;20094;-81
2023/12/20 08:45:00;;;;;;;4.40;2.42;;;6.30;99.90;;;;;;4950331;29;20071;-78
2023/12/20 08:47:25;;;;;;;1.60;1.50;;;6.30;99.90;;;;;;4966383;29;20038;-81
2023/12/20 08:49:58;;;;;;;4.60;3.00;;;6.30;99.90;;;;;;4947940;29;20033;-82
2023/12/20 08:52:46;;;;;;;7.80;3.15;;;6.20;99.90;;;;;;4979524;28;20033;-81
2023/12/20 08:55:34;;;;;;;1.65;1.42;;;6.20;99.90;;;;;;4945789;28;20039;-84
2023/12/20 09:04:51;;;;;;;3.97;2.95;;;5.80;99.90;;;;;;4898144;29;20068;-81
2023/12/20 09:07:26;;;;;;;2.60;2.40;;;5.90;99.90;;;;;;4888065;29;20028;-81
2023/12/20 09:09:52;;;;;;;7.32;2.70;;;5.90;99.90;;;;;;4967940;28;20075;-83
2023/12/20 09:12:40;;;;;;;2.42;1.65;;;5.90;99.90;;;;;;4970367;28;20022;-81
2023/12/20 09:15:08;;;;;;;2.00;1.60;;;5.90;99.90;;;;;;4997577;28;20035;-81
2023/12/20 09:17:59;;;;;;;1.85;1.60;;;6.00;99.90;;;;;;4975863;28;20089;-81
2023/12/20 09:20:27;;;;;;;2.63;1.92;;;6.00;99.90;;;;;;4995476;28;20041;-79
2023/12/20 09:23:07;;;;;;;1.50;1.30;;;6.10;99.90;;;;;;4981612;28;20031;-82
2023/12/20 09:25:33;;;;;;;2.75;2.05;;;6.10;99.90;;;;;;4981801;28;20039;-82
2023/12/20 09:28:02;;;;;;;2.25;1.90;;;6.10;99.90;;;;;;4997578;28;20015;-80
2023/12/20 09:30:29;;;;;;;2.53;1.73;;;6.00;99.90;;;;;;4995225;28;20023;-83
2023/12/20 09:33:08;;;;;;;2.38;1.85;;;6.00;99.90;;;;;;4962546;28;20015;-82
2023/12/20 09:35:34;;;;;;;1.90;1.80;;;6.00;99.90;;;;;;4984411;28;20027;-82
2023/12/20 09:38:04;;;;;;;2.80;2.10;;;6.10;99.90;;;;;;4983731;28;20057;-83
2023/12/20 09:40:33;;;;;;;2.83;1.63;;;7.20;99.90;;;;;;4978119;28;20043;-81
2023/12/20 09:43:15;;;;;;;3.53;1.80;;;6.40;99.90;;;;;;5000026;28;20042;-81
2023/12/20 09:45:50;;;;;;;2.28;1.92;;;6.40;99.90;;;;;;4984626;28;20049;-81
2023/12/20 09:48:59;;;;;;;1.80;1.13;;;6.50;99.90;;;;;;4991975;28;20042;-81
2023/12/20 09:51:28;;;;;;;1.77;1.67;;;6.40;99.90;;;;;;4971156;29;20010;-80
2023/12/20 09:54:40;;;;;;;2.33;2.10;;;6.40;99.90;;;;;;4982378;28;20037;-81
2023/12/20 09:57:08;;;;;;;2.20;2.00;;;6.30;99.90;;;;;;4974965;28;20049;-82
2023/12/20 09:59:34;;;;;;;4.10;2.60;;;6.30;99.90;;;;;;4980494;28;20095;-80
2023/12/20 10:02:04;;;;;;;3.85;2.35;;;6.20;99.90;;;;;;4979183;28;20043;-82
2023/12/20 10:04:38;;;;;;;3.08;2.20;;;6.00;99.90;;;;;;4971912;29;20031;-83
2023/12/20 10:07:04;;;;;;;6.78;2.28;;;5.80;99.90;;;;;;4986500;28;20027;-81
2023/12/20 10:09:32;;;;;;;3.47;2.33;;;5.70;99.90;;;;;;4983758;28;20272;-83
2023/12/20 10:12:21;;;;;;;5.45;3.08;;;5.60;99.90;;;;;;4985741;28;20046;-82
2023/12/20 10:15:00;;;;;;;3.13;2.55;;;5.60;99.90;;;;;;4969272;28;20095;-81
2023/12/20 10:17:32;;;;;;;3.03;2.30;;;5.60;99.90;;;;;;4970948;29;20027;-82
2023/12/20 10:19:58;;;;;;;3.33;2.83;;;6.50;99.90;;;;;;4986945;28;20027;-83
2023/12/20 10:22:42;;;;;;;2.80;2.50;;;5.60;99.90;;;;;;4989576;28;20059;-83
2023/12/20 10:25:09;;;;;;;2.97;1.75;;;5.70;99.90;;;;;;4975296;28;20327;-82
2023/12/20 10:27:39;;;;;;;3.50;1.33;;;5.70;99.90;;;;;;4989822;28;20031;-83
2023/12/20 10:30:11;;;;;;;2.78;2.10;;;5.60;99.90;;;;;;4973051;28;20031;-83
2023/12/20 10:32:40;;;;;;;3.22;1.98;;;5.60;99.90;;;;;;4974477;29;20015;-83
2023/12/20 10:35:10;;;;;;;2.05;1.52;;;5.60;99.90;;;;;;4975838;29;20046;-83
2023/12/20 10:37:50;;;;;;;3.30;2.00;;;5.40;99.90;;;;;;4962217;29;20045;-83
2023/12/20 10:40:25;;;;;;;2.50;1.90;;;5.50;99.90;;;;;;4976016;29;20027;-82
2023/12/20 10:43:06;;;;;;;4.57;2.20;;;5.50;99.90;;;;;;4974462;28;20030;-83
2023/12/20 10:45:51;;;;;;;3.65;3.05;;;5.40;99.90;;;;;;4969971;29;20031;-82
2023/12/20 10:48:21;;;;;;;4.07;2.67;;;5.50;99.90;;;;;;4971778;29;20027;-80
2023/12/20 10:51:20;;;;;;;3.10;2.72;;;5.50;99.90;;;;;;4974784;28;20035;-80
2023/12/20 10:53:53;;;;;;;3.25;2.47;;;5.50;99.90;;;;;;4971782;29;20175;-82
2023/12/20 10:56:20;;;;;;;3.50;1.85;;;5.40;99.90;;;;;;4971752;29;20091;-82
2023/12/20 10:58:47;;;;;;;4.45;2.22;;;5.40;99.90;;;;;;4970035;29;20054;-77
2023/12/20 11:01:20;;;;;;;2.92;2.25;;;5.40;99.90;;;;;;4983863;28;20090;-81
2023/12/20 11:03:54;;;;;;;1.63;1.52;;;5.40;99.90;;;;;;4970449;28;20039;-80
2023/12/20 11:06:35;;;;;;;5.05;1.48;;;5.40;99.90;;;;;;4972375;28;20192;-80
2023/12/20 11:09:23;;;;;;;4.90;2.38;;;5.40;99.90;;;;;;4970305;28;20573;-79
2023/12/20 11:11:57;;;;;;;4.85;2.22;;;5.40;99.90;;;;;;4968353;28;20302;-79
2023/12/20 11:14:41;;;;;;;13.48;2.78;;;5.30;99.90;;;;;;4985464;28;20045;-80
2023/12/20 11:17:08;;;;;;;3.53;1.98;;;5.30;99.90;;;;;;4965670;28;20031;-80
2023/12/20 11:19:57;;;;;;;4.75;2.53;;;5.20;99.90;;;;;;4966081;28;20027;-81
2023/12/20 11:22:27;;;;;;;5.50;2.00;;;5.20;99.90;;;;;;4966849;28;20023;-81
2023/12/20 11:24:55;;;;;;;2.05;1.67;;;5.20;99.90;;;;;;4966002;28;20050;-81
2023/12/20 11:27:23;;;;;;;3.00;2.22;;;5.20;99.90;;;;;;4966640;28;20031;-81
2023/12/20 11:29:53;;;;;;;4.53;2.28;;;5.30;99.90;;;;;;4965641;28;20026;-81
2023/12/20 11:32:28;;;;;;;2.20;1.45;;;5.30;99.90;;;;;;4966671;28;20214;-81
2023/12/20 11:35:17;;;;;;;2.35;2.15;;;5.40;99.90;;;;;;4965962;28;20027;-81
2023/12/20 11:38:35;;;;;;;2.65;1.83;;;5.40;99.90;;;;;;4951869;28;20216;-81
2023/12/20 11:41:07;;;;;;;5.75;1.95;;;5.60;99.90;;;;;;4934528;28;20027;-82
2023/12/20 11:43:37;;;;;;;10.88;2.22;;;6.10;99.90;;;;;;4957066;29;20043;-83
2023/12/20 11:46:11;;;;;;;5.28;2.33;;;5.70;99.90;;;;;;4951157;28;20050;-82
2023/12/20 11:48:43;;;;;;;5.03;1.50;;;5.80;99.90;;;;;;4965793;28;20028;-82
2023/12/20 11:51:37;;;;;;;2.83;1.35;;;5.90;99.90;;;;;;4948807;28;20039;-82
2023/12/20 11:54:03;;;;;;;6.25;1.30;;;6.00;99.90;;;;;;4968904;28;20026;-83
2023/12/20 11:57:18;;;;;;;4.43;1.13;;;6.10;99.90;;;;;;4969775;28;20027;-83
2023/12/20 12:03:05;;;;;;;6.22;1.02;;;5.80;99.90;;;;;;4906970;29;20036;-84
2023/12/20 12:06:04;;;;;;;5.38;1.35;;;5.60;99.90;;;;;;4907314;29;20071;-83
2023/12/20 12:08:30;;;;;;;5.15;1.65;;;5.60;99.90;;;;;;4959908;28;20031;-83
2023/12/20 12:10:56;;;;;;;2.20;1.30;;;5.70;99.90;;;;;;4972034;28;20058;-82
2023/12/20 12:13:27;;;;;;;7.05;2.03;;;5.90;99.90;;;;;;5014254;23;20103;-82
2023/12/20 12:15:53;;;;;;;6.45;1.08;;;5.90;99.90;;;;;;4973184;28;20031;-82
2023/12/20 12:18:25;;;;;;;2.47;0.90;;;6.00;99.90;;;;;;4954181;29;20026;-81
2023/12/20 12:21:06;;;;;;;2.65;0.70;;;6.10;99.90;;;;;;4981315;28;20022;-81
2023/12/20 12:23:47;;;;;;;4.43;0.68;;;6.10;99.90;;;;;;4964011;28;20063;-80
2023/12/20 12:27:27;;;;;;;5.95;0.90;;;6.10;99.90;;;;;;4966455;28;20026;-82
2023/12/20 12:30:13;;;;;;;2.53;0.80;;;6.30;99.90;;;;;;4913204;29;20055;-80
2023/12/20 12:32:39;;;;;;;11.10;1.75;;;6.20;99.90;;;;;;4982248;28;20055;-81
2023/12/20 12:35:26;;;;;;;6.80;1.30;;;6.00;99.90;;;;;;4982115;28;20040;-83
2023/12/20 12:38:22;;;;;;;1.65;0.75;;;6.00;99.90;;;;;;4947209;29;20047;-84
2023/12/20 12:40:55;;;;;;;3.88;1.00;;;6.00;99.90;;;;;;4952607;29;20023;-84
2023/12/20 12:43:28;;;;;;;3.35;0.90;;;6.00;99.90;;;;;;4959558;29;20035;-84
2023/12/20 12:46:11;;;;;;;6.10;2.15;;;5.90;99.90;;;;;;4982113;28;20023;-80
2023/12/20 12:48:38;;;;;;;2.58;0.80;;;6.00;99.90;;;;;;4966213;28;20015;-80
2023/12/20 12:51:13;;;;;;;2.38;1.10;;;5.90;99.90;;;;;;4982717;28;20071;-80
2023/12/20 12:53:56;;;;;;;4.80;1.10;;;5.80;99.90;;;;;;4977801;29;20011;-80
2023/12/20 12:56:22;;;;;;;7.38;1.48;;;5.80;99.90;;;;;;4947866;29;20068;-81
2023/12/20 12:58:49;;;;;;;7.70;1.38;;;5.90;99.90;;;;;;4963479;29;20007;-81
2023/12/20 13:01:38;;;;;;;5.35;1.33;;;5.90;99.90;;;;;;4978084;29;20051;-81
2023/12/20 13:04:10;;;;;;;2.45;1.02;;;5.90;99.90;;;;;;4959236;29;20031;-81
2023/12/20 13:06:53;;;;;;;6.03;0.90;;;5.90;99.90;;;;;;4979462;29;20026;-81
2023/12/20 13:09:34;;;;;;;6.75;0.80;;;5.90;99.90;;;;;;4948225;29;20043;-81
2023/12/20 13:12:30;;;;;;;4.35;0.75;;;5.70;99.90;;;;;;4978939;29;20031;-82
2023/12/20 13:15:05;;;;;;;3.67;1.20;;;5.70;99.90;;;;;;4977818;29;20055;-84
2023/12/20 13:17:41;;;;;;;4.97;0.75;;;5.80;99.90;;;;;;4956190;29;20047;-86
2023/12/20 13:20:39;;;;;;;3.05;0.93;;;5.80;99.90;;;;;;4960264;29;20054;-82
2023/12/20 13:23:08;;;;;;;10.98;1.23;;;5.90;99.90;;;;;;4978885;28;20039;-81
2023/12/20 13:25:36;;;;;;;2.70;0.80;;;5.80;99.90;;;;;;4963317;29;20067;-81
2023/12/20 13:28:25;;;;;;;1.80;0.65;;;5.70;99.90;;;;;;4953580;29;20042;-81
2023/12/20 13:30:52;;;;;;;2.47;1.02;;;5.60;99.90;;;;;;4931530;29;20088;-82
2023/12/20 13:33:30;;;;;;;5.18;0.57;;;5.60;99.90;;;;;;4949683;29;20035;-82
2023/12/20 13:35:58;;;;;;;4.07;0.85;;;5.50;99.90;;;;;;4963432;29;20027;-83
2023/12/20 13:38:38;;;;;;;5.63;0.82;;;5.60;99.90;;;;;;4979032;29;20046;-82
2023/12/20 13:41:11;;;;;;;3.90;0.70;;;5.80;99.90;;;;;;4963135;28;20011;-82
2023/12/20 13:43:49;;;;;;;2.33;0.70;;;6.90;99.90;;;;;;4959631;29;20039;-82
2023/12/20 13:46:17;;;;;;;3.60;0.77;;;7.00;99.90;;;;;;4964420;29;20030;-82
2023/12/20 13:48:46;;;;;;;5.15;0.88;;;6.70;99.90;;;;;;4964535;29;20027;-82
2023/12/20 13:51:52;;;;;;;;;;;;;;;;;;;;;
2023/12/20 13:54:32;;;;;;;3.07;0.90;;;6.10;99.90;;;;;;4959105;29;20042;-81
2023/12/20 13:56:58;;;;;;;3.05;0.70;;;5.90;99.90;;;;;;4955699;29;20302;-81
2023/12/20 13:59:28;;;;;;;4.15;1.13;;;5.80;99.90;;;;;;4957098;29;20411;-83
2023/12/20 14:02:08;;;;;;;1.85;1.27;;;5.80;99.90;;;;;;4959023;29;20024;-82
2023/12/20 14:04:41;;;;;;;7.82;0.90;;;5.80;99.90;;;;;;4971567;29;20103;-83
2023/12/20 14:07:29;;;;;;;5.78;1.00;;;5.90;99.90;;;;;;4960173;29;20031;-82
2023/12/20 14:10:05;;;;;;;2.75;0.77;;;6.20;99.90;;;;;;4963530;29;20015;-83
2023/12/20 14:12:36;;;;;;;4.68;1.10;;;6.80;99.90;;;;;;4950316;29;20024;-83
2023/12/20 14:15:13;;;;;;;1.10;0.65;;;7.10;99.90;;;;;;4931672;29;20043;-83
2023/12/20 14:18:02;;;;;;;4.00;1.27;;;7.20;99.90;;;;;;4956100;29;20028;-82
2023/12/20 14:20:29;;;;;;;2.17;0.80;;;7.20;99.90;;;;;;4961304;29;20102;-82
2023/12/20 14:22:56;;;;;;;1.58;0.70;;;7.10;99.90;;;;;;4961257;29;20032;-82
2023/12/20 14:25:25;;;;;;;3.55;1.23;;;6.70;99.90;;;;;;4959213;29;20051;-83
2023/12/20 14:28:14;;;;;;;6.20;0.68;;;6.70;99.90;;;;;;4963376;28;20016;-82
2023/12/20 14:31:06;;;;;;;;;;;7.10;99.80;;;;;;4962600;29;20047;-80
2023/12/20 14:33:35;;;;;;;7.28;1.40;;;8.00;98.30;;;;;;4957737;29;20336;-82
2023/12/20 14:36:36;;;;;;;3.05;0.85;;;8.70;95.30;;;;;;4958380;29;20008;-83
2023/12/20 14:39:31;;;;;;;4.90;1.05;;;9.00;93.00;;;;;;4945728;29;20040;-83